Relevés horaires Semmerzake (Belgique)


Relevés horaires à Semmerzake - Samedi 06 Avr. 2024
Heure UTC1 Température [°C] Vent [km/h] Hum. [%] Pres.4 [hPa] Visi. [Km] Nébu. [octa] Préc.5 [mm] Cond.
2m. Res. Ros. Dir.2 Vit. Moy. Raf.3
23:00 16.9 16.9 10.4 SO 3.7 -- 9.3 66 1009.1(0.6/3h) >70 -- -- --
22:00 17.1 17.1 10.1 SSO 3.7 -- 7.4 63 1008.7(0.4/3h) >70 -- -- --
21:00 17.1 17.1 10.1 S 3.7 -- 7.4 63 1008.1(0.0/3h) >70 -- -- --
20:00 17.8 17.8 10.2 S 3.7 -- 7.4 61 1008.5(0.9/3h) >70 -- -- --
19:00 18.2 18.2 9.6 NNO 1.9 -- 7.4 57 1008.2(0.3/3h) >70 -- -- --
18:00 20.0 20.0 9.3 SO 3.7 -- 25.9 50 1008.1(0.2/3h) >70 -- -- --
17:00 20.1 20.1 9.8 S 11.1 -- 18.5 51 1007.6(0.0/3h) >70 -- -- --
16:00 20.9 20.9 9.7 SSO 11.1 -- 22.2 49 1007.7(0.3/3h) 17 -- -- --
15:00 21.7 21.7 9.2 SSO 13.0 -- 25.9 45 1007.7(0.3/3h) >70 -- -- --
14:00 22.5 22.5 8.6 SSO 14.8 -- 24.1 41 1007.5(1.1/3h) >70 -- -- --
13:00 22.1 22.1 7.7 SSO 16.7 -- 25.9 40 1007.2(0.7/3h) >70 -- -- --
12:00 21.8 21.8 7.8 S 13.0 -- 25.9 41 1007.2(0.0/3h) >70 -- -- --
11:00 20.7 20.7 8.6 S 16.7 -- 25.9 46 1006.3(-1.1/3h) >70 -- -- --
10:00 19.2 19.2 9.2 S 13.0 -- 20.4 52 1006.6(-1.1/3h) >70 -- -- --
09:00 17.6 17.6 9.4 S 9.3 -- 18.5 59 1007.3(-0.6/3h) >70 -- -- --
08:00 16.1 16 9.4 SSE 9.3 -- 18.5 64 1007.3(-0.8/3h) >70 -- -- --
07:00 15.6 15.2 10.1 S 11.1 -- 16.7 70 1007.8(-0.7/3h) >70 -- -- --
06:00 14.8 14.5 10.3 SSE 9.3 -- 16.7 74 1008.2(-1.1/3h) >70 -- trace/12h
--
05:00 14.3 14.2 10.5 SSE 7.4 -- 13.0 78 1008.3(-1.6/3h) >70 -- -- --
04:00 14.6 14.5 10.7 SSE 7.4 -- 13.0 77 1008.5(-1.4/3h) >70 -- -- --
03:00 14.5 14.5 11.2 SSE 5.6 -- 13.0 81 1009.2(-1.8/3h) >70 -- -- --
02:00 14.8 14.7 11.6 SSE 7.4 -- 13.0 81 1010(-1.2/3h) >70 -- -- --
01:00 15.0 15.0 11.8 SSE 5.6 -- 7.4 81 1010(-1.0/3h) >70 -- -- --
00:00 14.6 14.6 12.2 S 5.6 -- 20.4 86 1011.1(0.1/3h) >70 -- trace/6h
NA

1 Coordinated Universal Time. Actuellement il est 04:00 locale et 02:00 UTC.

2 Le vent souffle depuis la direction indiquée vers la direction oposée.

3 Les rafales max. sont disponible 40 min après l'heure du relevé.

4 Pour les stations d'altitude (plus de 600m) le géopotentiel du niveau le plus proche de la pression obligatoire est indiqué.

5 Les stations disposant d'un diffuseur peuvent indiquer "trace". Cela signifie que des précipitations ont touchés le sol mais que la quantité est inférieure à 0.1 mm.

Récapitulatif de la journée
Température [°C] Vent [km/h] Ensoleillement4 [h] Precipitations totale5 [mm] Pression [Hpa]
Min1 Max.2 Moy.3 Max. Min Max.
14.1 22.9 0 25.9 0 h 0 min 0 1006.3 1011.1

1 Température minimale relevée entre 18:00 UTC la veille et 18:00 UTC le jour donné.

2 Température maximale relevée entre 06:00 UTC le jour donné et 06:00 UTC le lendemain.

3 Vent moyen de la journée basé sur les relevés horaires.

4 Ensoleillement en heures relevé entre 06:00 UTC la veille et 06:00 UTC le jour donné.

5 Précipitations totales tombées entre 06:00 UTC la jour donné et 06:00 UTC le lendemain.

Graphiques horaires